• Join FlightAware (Why Join?)
  • Login
  • US Flag 
08:20PM EST


 

Airport Tracker/Info


-or-


 

Live Flight TrackerFlight Track Log ✈ DAL1388 ✈ 30-Apr-2013 ✈ KMSP - KBDL

Flight Track Log - Related Links

Times and Time Zones

All times are in EDT time to prevent confusion due to time zone crossing. See the DAL1388 flight status page for this flight to view local times or setup timezone preferences in your user account.

Time Position Orientation Groundspeed Altitude Reporting Facility
EDT Latitude Longitude Course Direction KTS MPH feet Rate Location/Type
08:28PM 44.9167 -93.2667 66° East 176 203 3,200  Level Minneapolis TRACON
08:29PM 44.9272 -93.2769 325° Northwest 187 215 3,500 2,520 Climbing Minneapolis Center
08:30PM 44.9917 -93.2919 351° North 250 288 6,500 2,820 Climbing Minneapolis Center
08:31PM 45.0575 -92.5674 66° East  Level FlightAware Approximate
08:31PM 45.0494 -93.2136 44° Northeast 298 343 9,300  Level Minneapolis Center
08:32PM 45.0938 -92.4018 65° Northeast  Level FlightAware Approximate
08:32PM 45.0908 -93.0994 63° Northeast 324 373 12,100  Level Minneapolis Center
08:33PM 45.1432 -92.2395 67° East  Level FlightAware Approximate
08:33PM 45.1483 -92.9367 63° Northeast 396 456 13,700  Level Minneapolis Center
08:34PM 45.1829 -92.0809 66° East  Level FlightAware Approximate
08:34PM 45.2044 -92.7814 63° Northeast 440 506 15,900  Level Minneapolis Center
08:35PM 45.2586 -92.6167 65° Northeast 461 531 18,300 1,980 Climbing Minneapolis Center
08:36PM 45.2833 -92.4342 79° East 478 550 20,100 1,740 Climbing Minneapolis Center
08:37PM 45.3033 -92.2836 79° East 484 557 21,900 1,920 Climbing Minneapolis Center
08:38PM 45.3347 -92.0544 79° East 492 566 24,100 1,800 Climbing Minneapolis Center
08:39PM 45.3617 -91.8592 79° East 502 578 25,700 1,380 Climbing Minneapolis Center
08:40PM 45.3889 -91.6611 79° East 510 587 27,000 1,260 Climbing Minneapolis Center
08:41PM 45.4211 -91.4183 79° East 520 598 28,300 1,140 Climbing Minneapolis Center
08:42PM 45.4433 -91.2375 80° East 528 608 29,400 1,140 Climbing Minneapolis Center
08:43PM 45.4631 -91.0292 82° East 531 611 30,700 1,500 Climbing Minneapolis Center
08:44PM 45.4503 -90.7817 94° East 523 602 32,500 1,500 Climbing Minneapolis Center
08:45PM 45.4286 -90.5822 99° East 512 589 33,800 1,500 Climbing Minneapolis Center
08:46PM 45.4078 -90.3883 99° East 501 577 35,600 1,260 Climbing Minneapolis Center
08:47PM 45.3889 -90.1981 98° East 490 564 36,500 660 Climbing Minneapolis Center
08:48PM 45.3686 -90.0094 99° East 487 560 37,000 240 Climbing Minneapolis Center
08:49PM 45.3672 -89.7825 90° East 488 562 37,000  Level Minneapolis Center
08:50PM 45.3775 -89.5900 86° East 491 565 37,000  Level Minneapolis Center
08:51PM 45.3881 -89.3992 85° East 488 562 37,000  Level Minneapolis Center
08:52PM 45.3956 -89.2083 87° East 488 562 37,000  Level Minneapolis Center
08:53PM 45.3703 -89.0228 101° East 481 554 37,000  Level Minneapolis Center
08:54PM 45.3444 -88.8378 101° East 481 554 37,000  Level Minneapolis Center
08:55PM 45.3194 -88.6511 101° East 482 555 37,000  Level Minneapolis Center
08:56PM 45.2886 -88.4342 101° East 485 558 37,000 -60 Level Minneapolis Center
08:57PM 45.2617 -88.2486 102° East 483 556 36,900  Descending Minneapolis Center
08:58PM 45.2344 -88.0600 102° East 487 560 37,000  Climbing Minneapolis Center
09:00PM 45.2075 -87.8747 102° East 482 555 36,900 -60 Descending Minneapolis Center
09:01PM 45.1786 -87.6869 102° East 486 559 36,900  Level Minneapolis Center
09:02PM 45.1458 -87.4617 102° East 488 562 37,000  Climbing Minneapolis Center
09:03PM 45.1106 -87.2381 103° East 485 558 37,000  Level Minneapolis Center
09:04PM 45.0819 -87.0514 102° East 485 558 37,000 -60 Level Minneapolis Center
09:05PM 45.0528 -86.8664 103° East 484 557 36,900  Descending Minneapolis Center
09:06PM 45.0256 -86.6925 102° East 483 556 37,000  Climbing Minneapolis Center
09:07PM 44.9853 -86.4367 102° East 480 552 37,000  Level Minneapolis Center
09:08PM 44.9550 -86.2542 103° East 477 549 37,000  Level Minneapolis Center
09:09PM 44.9253 -86.0711 103° East 478 550 37,000  Level Minneapolis Center
09:10PM 44.8953 -85.8892 103° East 478 550 37,000  Level Minneapolis Center
09:11PM 44.8639 -85.7053 103° East 481 554 37,000 -60 Level Minneapolis Center
09:12PM 44.8236 -85.4622 103° East 477 549 36,900  Descending Minneapolis Center
09:13PM 44.7964 -85.3161 105° East 480 552 37,000  Climbing Minneapolis Center
09:15PM 44.7569 -85.0983 104° East 480 552 37,000 -60 Level Minneapolis Center
09:16PM 44.7233 -84.9164 105° East 481 554 36,900 -60 Descending Minneapolis Center
09:17PM 44.6906 -84.7358 104° East 479 551 36,900  Level Minneapolis Center
09:18PM 44.6572 -84.5564 105° East 476 548 36,900  Level Minneapolis Center
09:19PM 44.6233 -84.3747 105° East 479 551 36,900  Level Minneapolis Center
09:20PM 44.5817 -84.1583 105° East 481 554 37,000  Climbing Minneapolis Center
09:21PM 44.5475 -83.9775 105° East 480 552 37,000  Level Minneapolis Center
09:22PM 44.5114 -83.8003 106° East 476 548 37,000 -60 Level Minneapolis Center
09:23PM 44.4775 -83.6239 105° East 473 544 36,900 -60 Descending Minneapolis Center
09:24PM 44.4433 -83.4500 105° East 468 539 36,900  Level Minneapolis Center
09:25PM 44.4100 -83.2756 105° East 467 537 36,900  Level Minneapolis Center
09:26PM 44.3750 -83.1019 106° East 465 535 36,900 60 Level Minneapolis Center
09:26PM 44.3333 -82.9667 113° Southeast 470 541 37,000 60 Climbing Toronto Center
09:27PM 44.2833 -82.7833 111° Southeast 470 541 37,000  Level Toronto Center
09:28PM 44.2667 -82.6167 98° East 470 541 37,000  Level Toronto Center
09:29PM 44.2664 -82.5750 91° East 473 544 37,000  Level Minneapolis Center
09:30PM 44.2231 -82.3619 106° East 476 548 37,000  Level Minneapolis Center
09:30PM 44.1833 -82.2667 120° Southeast 480 552 37,000  Level Toronto Center
09:31PM 44.1500 -82.1000 106° East 480 552 37,000  Level Toronto Center
09:32PM 44.1167 -81.9167 104° East 480 552 37,000  Level Toronto Center
09:33PM 44.0833 -81.7167 103° East 480 552 37,000  Level Toronto Center
09:34PM 44.0333 -81.5333 111° Southeast 470 541 37,000  Level Toronto Center
09:35PM 44.0000 -81.3667 105° East 470 541 37,000  Level Toronto Center
09:36PM 43.9500 -81.2000 113° Southeast 470 541 37,000  Level Toronto Center
09:37PM 43.9167 -81.0167 104° East 470 541 37,000  Level Toronto Center
09:38PM 43.8833 -80.8667 107° East 470 541 37,000  Level Toronto Center
09:39PM 43.8500 -80.7000 105° East 460 529 37,000  Level Toronto Center
09:40PM 43.8167 -80.5167 104° East 460 529 37,000  Level Toronto Center
09:41PM 43.7667 -80.3500 113° Southeast 460 529 37,000  Level Toronto Center
09:42PM 43.7333 -80.1833 105° East 460 529 37,000  Level Toronto Center
09:43PM 43.6833 -80.0000 111° Southeast 460 529 37,000  Level Toronto Center
09:44PM 43.6500 -79.8333 105° East 460 529 37,000  Level Toronto Center
09:45PM 43.6167 -79.6833 107° East 470 541 37,000  Level Toronto Center
09:46PM 43.5667 -79.5000 111° Southeast 470 541 37,000  Level Toronto Center
09:47PM 43.5333 -79.3333 105° East 460 529 37,000  Level Toronto Center
09:48PM 43.4833 -79.1500 111° Southeast 470 541 37,000  Level Toronto Center
09:49PM 43.4500 -78.9833 105° East 460 529 37,000  Level Toronto Center
09:50PM 43.4167 -78.8333 107° East 460 529 37,000  Level Toronto Center
09:51PM 43.3667 -78.6667 112° Southeast 460 529 37,000  Level Toronto Center
09:52PM 43.3167 -78.4833 110° East 460 529 37,000  Level Toronto Center
09:53PM 43.2667 -78.3333 115° Southeast 460 529 37,000  Level Toronto Center
09:54PM 43.2544 -78.1917 97° East 459 528 37,000  Level Cleveland Center
09:55PM 43.2136 -78.0281 109° East 459 528 37,000  Level Cleveland Center
09:56PM 43.1703 -77.8619 110° East 459 528 37,000  Level Cleveland Center
09:57PM 43.1286 -77.6958 109° East 459 528 37,000 -420 Level Cleveland Center
09:59PM 43.0528 -77.4108 110° East 459 528 35,900 -780 Descending Boston Center
09:59PM 43.0167 -77.3500 129° Southeast 460 529 35,600 -720 Descending Toronto Center
10:00PM 42.9833 -77.1667 104° East 460 529 35,000 -300 Descending Toronto Center
10:01PM 42.9500 -77.0167 107° East 470 541 35,000  Level Toronto Center
10:02PM 42.9000 -76.8333 110° East 470 541 35,000  Level Toronto Center
10:03PM 42.8778 -76.7417 108° East 459 528 35,000 -60 Level Boston Center
10:04PM 42.8394 -76.5944 110° East 459 528 34,900  Descending Boston Center
10:05PM 42.7897 -76.4100 110° East 459 528 35,000  Climbing Boston Center
10:06PM 42.7489 -76.2603 110° East 459 528 35,000 -120 Level Boston Center
10:07PM 42.7042 -76.0964 110° East 459 528 34,800 -600 Descending Boston Center
10:08PM 42.6575 -75.9269 110° East 459 528 33,900 -960 Descending Boston Center
10:09PM 42.6189 -75.7556 107° East 464 534 32,900 -1,020 Descending Boston Center
10:10PM 42.5986 -75.5881 99° East 464 534 31,900 -1,080 Descending Boston Center
10:12PM 42.5517 -75.2306 100° East 452 520 29,800 -1,080 Descending Boston Center
10:13PM 42.5306 -75.0603 99° East 458 527 28,800 -1,380 Descending Boston Center
10:14PM 42.5072 -74.8903 100° East 458 527 27,100 -2,520 Descending Boston Center
10:15PM 42.4839 -74.7178 100° East 458 527 23,800 -2,580 Descending Boston Center
10:16PM 42.4789 -74.5486 92° East 451 519 22,000 -1,320 Descending Boston Center
10:18PM 42.4700 -74.3237 87° East  Level FlightAware Approximate
10:18PM 42.4492 -74.2156 87° East 446 513 20,000  Level Boston Center
10:19PM 42.4222 -74.0489 102° East 446 513 19,000 -1,080 Descending Boston Center
10:20PM 42.3975 -73.8881 102° East 446 513 17,900 -900 Descending Boston Center
10:21PM 42.3722 -73.7328 102° East 437 503 17,300 -660 Descending Boston Center
10:22PM 42.3606 -73.6650 103° East 431 496 17,000 -900 Descending Boston Center
10:22PM 42.3486 -73.6058 105° East 426 490 16,600 -1,020 Descending Boston Center
10:23PM 42.3272 -73.4453 100° East 415 478 15,400 -1,320 Descending Boston Center
10:24PM 42.2972 -73.2906 105° East 415 478 13,800 -1,800 Descending Boston Center
10:25PM 42.2628 -73.1442 108° East 391 450 11,900 -1,560 Descending Boston Center
10:26PM 42.2383 -73.0344 107° East 354 407 10,700 -1,440 Descending Boston Center
10:27PM 42.2119 -72.9222 108° East 304 350 9,100 -1,860 Descending Boston Center
10:27PM 42.2036 -72.8969 114° Southeast 278 320 8,400 -1,920 Descending Boston Center
10:28PM 42.1914 -72.8381 106° East 272 313 7,200 -1,380 Descending Boston Center
10:29PM 42.1667 -72.7369 108° East 264 304 6,100 -1,260 Descending Boston Center
10:30PM 42.1481 -72.6586 108° East 236 272 4,700 -1,080 Descending Boston Center
10:31PM 42.1336 -72.5914 106° East 224 258 4,000 -540 Descending Boston Center
10:31PM 42.1253 -72.5633 112° Southeast 189 217 4,000 -120 Level Boston Center
10:32PM 42.1044 -72.5297 130° Southeast 189 217 3,900 -180 Descending Boston Center